createdAt,value
2017-08-17T00:01:49.473Z,9.63
2017-08-17T00:04:17.055Z,10.00
2017-08-17T00:06:44.499Z,9.03
2017-08-17T00:09:11.980Z,8.47
2017-08-17T00:11:39.442Z,9.47
2017-08-17T00:14:06.936Z,9.00
2017-08-17T00:16:34.422Z,8.40
2017-08-17T00:19:01.984Z,10.67
2017-08-17T00:21:29.536Z,10.07
2017-08-17T00:23:56.983Z,8.17
2017-08-17T00:26:24.448Z,8.70
2017-08-17T00:28:51.895Z,8.20
2017-08-17T00:31:19.456Z,8.20
2017-08-17T00:33:46.907Z,8.27
2017-08-17T00:36:15.252Z,9.60
2017-08-17T00:38:42.712Z,10.63
2017-08-17T00:41:10.183Z,10.00
2017-08-17T00:43:37.661Z,9.10
2017-08-17T00:46:05.125Z,8.87
2017-08-17T00:48:32.673Z,10.13
2017-08-17T00:51:00.138Z,10.20
2017-08-17T00:53:27.687Z,10.10
2017-08-17T00:55:55.164Z,11.27
2017-08-17T00:58:22.616Z,16.30
2017-08-17T01:00:50.155Z,8.73
2017-08-17T01:03:17.613Z,10.93
2017-08-17T01:05:45.095Z,9.13
2017-08-17T01:08:12.543Z,8.03
2017-08-17T01:10:40.040Z,10.27
2017-08-17T01:13:07.548Z,10.50
2017-08-17T01:15:35.036Z,9.53
2017-08-17T01:18:02.512Z,11.87
2017-08-17T01:20:30.015Z,10.70
2017-08-17T01:22:57.488Z,10.57
2017-08-17T01:25:25.039Z,11.67
2017-08-17T01:27:52.531Z,10.80
2017-08-17T01:30:20.048Z,10.03
2017-08-17T01:32:47.603Z,13.03
2017-08-17T01:35:15.517Z,11.00
2017-08-17T01:37:43.019Z,10.77
2017-08-17T01:40:10.473Z,10.63
2017-08-17T01:42:38.059Z,9.00
2017-08-17T01:45:05.511Z,18.13
2017-08-17T01:47:33.070Z,10.17
2017-08-17T01:50:00.619Z,11.50
2017-08-17T01:52:28.176Z,10.80
2017-08-17T01:54:55.664Z,9.77
2017-08-17T01:57:23.124Z,10.23
2017-08-17T01:59:50.655Z,11.30
2017-08-17T02:02:18.204Z,11.43
2017-08-17T02:07:05.675Z,11.17
2017-08-17T02:09:33.153Z,10.80
2017-08-17T02:12:00.660Z,13.30
2017-08-17T02:14:28.123Z,9.90
2017-08-17T02:16:55.603Z,12.30
2017-08-17T02:19:23.135Z,10.60
2017-08-17T02:21:50.592Z,13.07
2017-08-17T02:24:18.064Z,12.23
2017-08-17T02:26:45.611Z,9.23
2017-08-17T02:29:13.162Z,12.57
2017-08-17T02:31:40.656Z,12.00
2017-08-17T02:34:08.184Z,11.30
2017-08-17T02:36:35.736Z,12.17
2017-08-17T02:39:03.203Z,14.33
2017-08-17T02:41:30.751Z,15.73
2017-08-17T02:43:58.208Z,11.07
2017-08-17T02:46:25.766Z,18.63
2017-08-17T02:48:53.228Z,14.87
2017-08-17T02:51:20.694Z,9.50
2017-08-17T02:53:48.143Z,11.53
2017-08-17T02:56:15.611Z,8.80
2017-08-17T02:58:43.069Z,10.73
2017-08-17T03:01:10.535Z,8.70
2017-08-17T03:03:37.984Z,8.40
2017-08-17T03:06:05.472Z,9.63
2017-08-17T03:08:32.976Z,8.90
2017-08-17T03:11:00.421Z,9.30
2017-08-17T03:13:27.888Z,11.10
2017-08-17T03:15:55.447Z,9.47
2017-08-17T03:18:22.915Z,10.23
2017-08-17T03:20:50.371Z,9.67
2017-08-17T03:23:17.848Z,10.20
2017-08-17T03:25:45.376Z,9.57
2017-08-17T03:28:12.849Z,10.47
2017-08-17T03:30:40.292Z,9.07
2017-08-17T03:33:07.759Z,9.13
2017-08-17T03:35:35.212Z,11.40
2017-08-17T03:38:02.675Z,9.07
2017-08-17T03:40:30.217Z,11.10
2017-08-17T03:42:57.699Z,11.00
2017-08-17T03:45:25.227Z,8.30
2017-08-17T03:47:52.703Z,12.90
2017-08-17T03:50:20.155Z,9.37
2017-08-17T03:52:47.708Z,11.10
2017-08-17T03:55:15.264Z,8.70
2017-08-17T03:57:42.821Z,14.70
2017-08-17T04:00:10.280Z,9.90
2017-08-17T04:02:37.848Z,7.70
2017-08-17T04:05:05.347Z,9.80
2017-08-17T04:07:32.847Z,8.70
2017-08-17T04:10:00.312Z,9.10
2017-08-17T04:12:27.863Z,14.23
2017-08-17T04:14:56.159Z,10.70
2017-08-17T04:17:23.622Z,9.93
2017-08-17T04:19:51.157Z,9.17
2017-08-17T04:22:18.617Z,8.47
2017-08-17T04:24:46.083Z,15.77
2017-08-17T04:27:13.804Z,8.53
2017-08-17T04:29:41.282Z,11.40
2017-08-17T04:32:08.849Z,19.10
2017-08-17T04:34:36.319Z,11.00
2017-08-17T04:37:03.864Z,10.20
2017-08-17T04:39:31.329Z,8.97
2017-08-17T04:41:58.880Z,10.20
2017-08-17T04:44:26.337Z,13.77
2017-08-17T04:46:53.811Z,9.30
2017-08-17T04:49:21.259Z,11.77
2017-08-17T04:51:48.728Z,7.70
2017-08-17T04:54:16.264Z,15.63
2017-08-17T04:57:10.179Z,8.67
2017-08-17T04:59:37.628Z,15.83
2017-08-17T05:02:05.098Z,7.83
2017-08-17T05:04:32.611Z,8.90
2017-08-17T05:07:00.198Z,10.93
2017-08-17T05:09:27.708Z,10.73
2017-08-17T05:11:55.368Z,13.90
2017-08-17T05:14:22.839Z,14.10
2017-08-17T05:16:50.315Z,12.63
2017-08-17T05:19:17.918Z,11.90
2017-08-17T05:21:45.424Z,11.87
2017-08-17T05:24:12.993Z,11.60
2017-08-17T05:26:40.456Z,11.37
2017-08-17T05:29:08.354Z,12.07
2017-08-17T05:31:35.828Z,11.27
2017-08-17T05:34:03.299Z,14.43
2017-08-17T05:36:30.764Z,10.57
2017-08-17T05:38:58.243Z,10.13
2017-08-17T05:41:25.883Z,10.87
2017-08-17T05:43:53.451Z,13.10
2017-08-17T05:46:20.902Z,13.67
2017-08-17T05:48:48.371Z,13.47
2017-08-17T05:51:15.840Z,15.73
2017-08-17T05:53:43.733Z,12.80
2017-08-17T05:56:11.248Z,10.67
2017-08-17T05:58:38.807Z,11.33
2017-08-17T06:01:06.280Z,11.97
2017-08-17T06:03:33.820Z,15.30
2017-08-17T06:06:02.351Z,9.83
2017-08-17T06:08:29.807Z,11.77
2017-08-17T06:10:57.271Z,9.53
2017-08-17T06:13:24.771Z,9.23
2017-08-17T06:15:52.236Z,8.73
2017-08-17T06:18:19.785Z,8.83
2017-08-17T06:20:47.255Z,12.87
2017-08-17T06:23:14.704Z,8.67
2017-08-17T06:25:42.172Z,9.73
2017-08-17T06:28:09.713Z,9.20
2017-08-17T06:30:37.180Z,13.73
2017-08-17T06:33:04.625Z,9.00
2017-08-17T06:35:32.099Z,11.40
2017-08-17T06:37:59.591Z,11.77
2017-08-17T06:40:27.071Z,11.60
2017-08-17T06:42:54.560Z,11.87
2017-08-17T06:45:22.044Z,11.07
2017-08-17T06:47:49.671Z,12.80
2017-08-17T06:50:17.128Z,15.27
2017-08-17T06:52:44.598Z,12.20
2017-08-17T06:55:12.151Z,14.10
2017-08-17T06:57:39.860Z,15.03
2017-08-17T07:00:07.353Z,18.03
2017-08-17T07:02:34.827Z,21.03
2017-08-17T07:05:02.380Z,15.10
2017-08-17T07:07:30.061Z,19.57
2017-08-17T07:09:57.610Z,26.13
2017-08-17T07:12:25.088Z,15.97
2017-08-17T07:14:52.554Z,15.17
2017-08-17T07:17:20.032Z,19.13
2017-08-17T07:19:47.596Z,21.47
2017-08-17T07:22:15.096Z,18.83
2017-08-17T07:24:42.555Z,17.00
2017-08-17T07:27:10.112Z,16.17
2017-08-17T07:29:37.619Z,20.30
2017-08-17T07:32:05.091Z,15.10
2017-08-17T07:34:32.680Z,12.67
2017-08-17T07:37:00.235Z,11.73
2017-08-17T07:39:27.717Z,11.93
2017-08-17T07:41:55.255Z,14.23
2017-08-17T07:44:22.807Z,11.80
2017-08-17T07:46:50.264Z,13.00
2017-08-17T07:49:17.757Z,19.07
2017-08-17T07:51:45.280Z,10.17
2017-08-17T07:54:12.759Z,11.53
2017-08-17T07:56:40.295Z,12.87
2017-08-17T07:59:08.082Z,12.20
2017-08-17T08:01:35.580Z,13.93
2017-08-17T08:04:03.084Z,12.70
2017-08-17T08:06:30.551Z,13.03
2017-08-17T08:08:58.088Z,11.57
2017-08-17T08:11:25.555Z,12.07
2017-08-17T08:13:53.035Z,12.80
2017-08-17T08:16:20.564Z,12.63
2017-08-17T08:18:48.072Z,12.07
2017-08-17T08:21:15.531Z,11.33
2017-08-17T08:23:43.442Z,10.70
2017-08-17T08:26:10.917Z,10.67
2017-08-17T08:28:38.455Z,12.70
2017-08-17T08:31:05.935Z,11.03
2017-08-17T08:33:33.472Z,11.33
2017-08-17T08:36:00.947Z,10.20
2017-08-17T08:38:28.486Z,17.63
2017-08-17T08:40:56.236Z,13.30
2017-08-17T08:43:23.719Z,11.93
2017-08-17T08:45:51.268Z,12.60
2017-08-17T08:48:18.721Z,17.20
2017-08-17T08:50:46.222Z,13.77
2017-08-17T08:53:13.739Z,10.63
2017-08-17T08:55:41.296Z,12.00
2017-08-17T08:58:08.856Z,12.93
2017-08-17T09:00:36.416Z,11.50
2017-08-17T09:03:03.872Z,10.00
2017-08-17T09:05:31.347Z,18.07
2017-08-17T09:07:58.885Z,10.37
2017-08-17T09:10:26.450Z,11.70
2017-08-17T09:12:54.002Z,11.20
2017-08-17T09:15:21.487Z,11.03
2017-08-17T09:17:49.019Z,10.30
2017-08-17T09:20:16.512Z,10.47
2017-08-17T09:22:44.063Z,11.60
2017-08-17T09:25:15.441Z,10.03
2017-08-17T09:27:43.012Z,9.83
2017-08-17T09:30:15.161Z,14.40
2017-08-17T09:32:42.878Z,11.23
2017-08-17T09:35:10.327Z,10.30
2017-08-17T09:37:37.803Z,11.47
2017-08-17T09:40:05.388Z,11.93
2017-08-17T09:42:32.903Z,10.70
2017-08-17T09:45:00.360Z,13.77
2017-08-17T09:47:28.496Z,16.03
2017-08-17T09:49:56.345Z,8.77
2017-08-17T09:52:24.110Z,9.57
2017-08-17T09:54:51.703Z,8.30
2017-08-17T09:57:19.271Z,7.03
2017-08-17T09:59:46.845Z,17.93
2017-08-17T10:02:14.394Z,8.13
2017-08-17T10:04:41.953Z,8.17
2017-08-17T10:07:09.403Z,8.77
2017-08-17T10:09:36.880Z,6.70
2017-08-17T10:12:04.425Z,8.07
2017-08-17T10:14:31.980Z,6.20
2017-08-17T10:16:59.431Z,7.03
2017-08-17T10:19:26.997Z,9.93
2017-08-17T10:21:54.442Z,8.83
2017-08-17T10:24:22.070Z,8.00
2017-08-17T10:26:51.213Z,7.87
2017-08-17T10:29:18.719Z,12.10
2017-08-17T10:31:46.774Z,7.57
2017-08-17T10:34:14.964Z,6.00
2017-08-17T10:36:42.599Z,6.27
2017-08-17T10:39:11.157Z,5.87
2017-08-17T10:41:38.635Z,5.23
2017-08-17T10:44:06.635Z,6.83
2017-08-17T10:46:34.335Z,4.40
2017-08-17T10:49:02.654Z,4.50
2017-08-17T10:51:30.487Z,6.30
2017-08-17T10:53:58.279Z,4.10
2017-08-17T10:56:26.168Z,3.17
2017-08-17T10:58:54.398Z,5.10
2017-08-17T11:01:22.052Z,3.60
2017-08-17T11:03:49.917Z,12.10
2017-08-17T11:06:17.938Z,4.40
2017-08-17T11:08:46.015Z,5.13
2017-08-17T11:11:13.640Z,15.93
2017-08-17T11:13:41.997Z,4.20
2017-08-17T11:16:09.862Z,3.93
2017-08-17T11:18:37.987Z,7.10
2017-08-17T11:21:05.854Z,9.03
2017-08-17T11:23:33.514Z,7.87
2017-08-17T11:26:01.808Z,4.30
2017-08-17T11:28:32.241Z,3.77
2017-08-17T11:30:59.925Z,4.03
2017-08-17T11:33:27.700Z,4.37
2017-08-17T11:35:55.862Z,5.97
2017-08-17T11:38:25.193Z,10.90
2017-08-17T11:40:53.007Z,7.07
2017-08-17T11:43:21.400Z,4.90
2017-08-17T11:45:48.867Z,11.10
2017-08-17T11:48:16.994Z,9.40
2017-08-17T11:50:44.707Z,5.30
2017-08-17T11:53:14.156Z,4.63
2017-08-17T11:55:41.838Z,4.43
2017-08-17T11:58:09.783Z,9.53
2017-08-17T12:00:37.243Z,3.80
2017-08-17T12:03:06.008Z,4.30
2017-08-17T12:05:35.250Z,10.47
2017-08-17T12:08:03.976Z,3.70
2017-08-17T12:10:32.883Z,4.70
2017-08-17T12:13:00.342Z,3.37
2017-08-17T12:15:27.859Z,4.23
2017-08-17T12:17:55.302Z,6.90
2017-08-17T12:20:22.783Z,3.87
2017-08-17T12:22:50.345Z,4.67
2017-08-17T12:25:17.799Z,15.90
2017-08-17T12:27:45.263Z,7.80
2017-08-17T12:30:12.804Z,2.97
2017-08-17T12:32:40.272Z,5.30
2017-08-17T12:35:07.828Z,7.10
2017-08-17T12:37:35.376Z,4.00
2017-08-17T12:40:02.819Z,4.27
2017-08-17T12:42:30.392Z,7.73
2017-08-17T12:44:58.076Z,3.00
2017-08-17T12:47:25.564Z,3.83
2017-08-17T12:49:53.010Z,7.43
2017-08-17T12:52:20.525Z,3.40
2017-08-17T12:54:48.088Z,2.87
2017-08-17T12:57:15.554Z,2.40
2017-08-17T12:59:43.131Z,2.37
2017-08-17T13:02:10.589Z,17.97
2017-08-17T13:04:38.075Z,3.67
2017-08-17T13:07:05.580Z,3.63
2017-08-17T13:09:33.056Z,4.53
2017-08-17T13:12:00.518Z,3.47
2017-08-17T13:14:27.988Z,1.57
2017-08-17T13:16:55.512Z,7.23
2017-08-17T13:19:23.015Z,1.23
2017-08-17T13:21:50.467Z,5.03
2017-08-17T13:24:17.974Z,5.90
2017-08-17T13:26:45.448Z,3.10
2017-08-17T13:29:13.000Z,5.03
2017-08-17T13:31:40.550Z,1.73
2017-08-17T13:34:08.003Z,4.67
2017-08-17T13:36:35.563Z,1.70
2017-08-17T13:39:03.016Z,2.30
2017-08-17T13:41:30.579Z,2.83
2017-08-17T13:43:58.027Z,3.87
2017-08-17T13:46:25.496Z,6.00
2017-08-17T13:48:53.355Z,6.93
2017-08-17T13:51:20.823Z,6.30
2017-08-17T13:53:48.369Z,3.37
2017-08-17T13:56:15.923Z,9.53
2017-08-17T13:58:43.384Z,6.23
2017-08-17T14:01:11.454Z,2.10
2017-08-17T14:03:39.013Z,5.17
2017-08-17T14:06:06.456Z,9.10
2017-08-17T14:08:34.063Z,2.23
2017-08-17T14:11:01.515Z,6.60
2017-08-17T14:13:29.054Z,6.23
2017-08-17T14:15:56.511Z,1.40
2017-08-17T14:18:24.050Z,1.93
2017-08-17T14:20:51.532Z,4.23
2017-08-17T14:23:18.999Z,1.10
2017-08-17T14:25:46.540Z,9.27
2017-08-17T14:28:14.016Z,5.13
2017-08-17T14:30:41.471Z,4.50
2017-08-17T14:33:08.919Z,5.43
2017-08-17T14:35:36.463Z,10.53
2017-08-17T14:38:03.907Z,1.67
2017-08-17T14:40:31.383Z,2.10
2017-08-17T14:42:58.932Z,3.57
2017-08-17T14:45:26.404Z,11.67
2017-08-17T14:47:54.204Z,2.87
2017-08-17T14:50:21.723Z,7.90
2017-08-17T14:52:49.299Z,4.80
2017-08-17T14:55:16.824Z,10.23
2017-08-17T14:57:44.271Z,7.50
2017-08-17T15:00:11.744Z,3.50
2017-08-17T15:02:39.204Z,1.17
2017-08-17T15:05:06.748Z,2.60
2017-08-17T15:07:34.215Z,1.70
2017-08-17T15:10:01.691Z,2.27
2017-08-17T15:12:29.143Z,2.00
2017-08-17T15:14:56.610Z,1.33
2017-08-17T15:17:24.135Z,4.47
2017-08-17T15:19:51.628Z,13.80
2017-08-17T15:22:19.164Z,1.23
2017-08-17T15:24:46.714Z,7.37
2017-08-17T15:27:14.220Z,3.00
2017-08-17T15:29:41.672Z,3.97
2017-08-17T15:32:09.186Z,8.63
2017-08-17T15:34:36.631Z,3.47
2017-08-17T15:37:04.098Z,3.23
2017-08-17T15:39:31.588Z,3.40
2017-08-17T15:41:59.115Z,2.03
2017-08-17T15:44:26.564Z,1.63
2017-08-17T15:46:54.044Z,0.80
2017-08-17T15:49:21.592Z,1.63
2017-08-17T15:51:49.059Z,4.80
2017-08-17T15:54:17.396Z,1.30
2017-08-17T15:56:44.991Z,1.57
2017-08-17T15:59:12.563Z,4.00
2017-08-17T16:01:40.096Z,1.13
2017-08-17T16:04:07.551Z,1.07
2017-08-17T16:06:35.111Z,0.93
2017-08-17T16:09:02.566Z,1.57
2017-08-17T16:11:30.084Z,1.10
2017-08-17T16:13:57.636Z,1.60
2017-08-17T16:16:25.103Z,0.90
2017-08-17T16:18:52.587Z,2.27
2017-08-17T16:21:20.049Z,2.83
2017-08-17T16:23:47.523Z,1.33
2017-08-17T16:26:15.050Z,6.83
2017-08-17T16:28:42.691Z,1.37
2017-08-17T16:31:10.180Z,6.00
2017-08-17T16:33:37.747Z,3.53
2017-08-17T16:36:05.210Z,4.50
2017-08-17T16:38:32.695Z,4.83
2017-08-17T16:41:00.231Z,1.80
2017-08-17T16:43:27.718Z,1.00
2017-08-17T16:45:55.259Z,1.40
2017-08-17T16:48:22.776Z,6.73
2017-08-17T16:50:50.262Z,3.30
2017-08-17T16:53:18.034Z,2.50
2017-08-17T16:55:45.528Z,1.10
2017-08-17T16:58:12.974Z,1.30
2017-08-17T17:00:40.458Z,2.00
2017-08-17T17:03:07.924Z,1.30
2017-08-17T17:05:35.499Z,3.70
2017-08-17T17:08:03.004Z,1.57
2017-08-17T17:10:30.511Z,1.40
2017-08-17T17:12:57.986Z,1.57
2017-08-17T17:15:25.528Z,5.43
2017-08-17T17:17:52.981Z,1.10
2017-08-17T17:20:20.451Z,3.20
2017-08-17T17:22:47.999Z,3.00
2017-08-17T17:25:15.472Z,1.47
2017-08-17T17:27:43.028Z,1.83
2017-08-17T17:30:10.489Z,5.63
2017-08-17T17:32:37.935Z,3.43
2017-08-17T17:35:05.407Z,1.33
2017-08-17T17:37:33.156Z,1.37
2017-08-17T17:40:00.631Z,2.03
2017-08-17T17:42:28.091Z,1.23
2017-08-17T17:44:55.549Z,1.80
2017-08-17T17:47:23.020Z,1.57
2017-08-17T17:49:50.491Z,3.73
2017-08-17T17:52:17.962Z,3.13
2017-08-17T17:54:45.440Z,2.33
2017-08-17T17:57:12.916Z,2.93
2017-08-17T17:59:40.456Z,2.63
2017-08-17T18:02:07.992Z,5.83
2017-08-17T18:04:35.447Z,2.00
2017-08-17T18:07:02.913Z,3.00
2017-08-17T18:09:30.393Z,2.13
2017-08-17T18:11:58.098Z,4.67
2017-08-17T18:14:25.736Z,1.60
2017-08-17T18:16:53.232Z,3.97
2017-08-17T18:19:20.774Z,3.80
2017-08-17T18:21:48.240Z,1.50
2017-08-17T18:24:15.704Z,1.53
2017-08-17T18:26:43.408Z,1.60
2017-08-17T18:29:10.915Z,1.77
2017-08-17T18:31:38.373Z,4.90
2017-08-17T18:34:05.878Z,3.50
2017-08-17T18:36:33.432Z,2.43
2017-08-17T18:39:01.700Z,5.97
2017-08-17T18:41:29.159Z,2.87
2017-08-17T18:43:56.630Z,2.43
2017-08-17T18:46:24.096Z,1.77
2017-08-17T18:48:51.568Z,1.40
2017-08-17T18:51:19.022Z,3.00
2017-08-17T18:53:46.525Z,2.50
2017-08-17T18:56:13.976Z,2.63
2017-08-17T18:58:41.465Z,3.40
2017-08-17T19:01:09.012Z,5.60
2017-08-17T19:03:36.480Z,2.40
2017-08-17T19:06:03.940Z,1.53
2017-08-17T19:08:31.404Z,6.80
2017-08-17T19:10:58.946Z,1.10
2017-08-17T19:13:26.391Z,5.47
2017-08-17T19:15:53.857Z,2.37
2017-08-17T19:18:21.308Z,1.70
2017-08-17T19:20:48.770Z,1.80
2017-08-17T19:23:16.235Z,1.20
2017-08-17T19:25:43.703Z,1.30
2017-08-17T19:28:11.250Z,2.40
2017-08-17T19:30:38.736Z,1.40
2017-08-17T19:33:06.187Z,6.43
2017-08-17T19:35:33.664Z,2.33
2017-08-17T19:38:01.173Z,2.63
2017-08-17T19:40:28.661Z,1.33
2017-08-17T19:42:56.188Z,2.60
2017-08-17T19:45:23.748Z,2.90
2017-08-17T19:47:51.190Z,2.20
2017-08-17T19:50:18.659Z,1.87
2017-08-17T19:52:46.107Z,2.50
2017-08-17T19:55:13.854Z,4.20
2017-08-17T19:57:41.327Z,4.80
2017-08-17T20:00:08.783Z,1.90
2017-08-17T20:02:36.343Z,1.57
2017-08-17T20:05:03.791Z,2.50
2017-08-17T20:07:31.410Z,1.50
2017-08-17T20:09:58.945Z,6.33
2017-08-17T20:12:26.730Z,2.27
2017-08-17T20:14:54.187Z,4.30
2017-08-17T20:17:21.759Z,1.80
2017-08-17T20:19:49.259Z,1.93
2017-08-17T20:22:16.732Z,3.20
2017-08-17T20:24:44.182Z,1.63
2017-08-17T20:27:11.660Z,2.10
2017-08-17T20:29:39.112Z,1.97
2017-08-17T20:32:06.637Z,2.50
2017-08-17T20:34:34.098Z,1.47
2017-08-17T20:37:01.600Z,1.53
2017-08-17T20:39:29.493Z,1.60
2017-08-17T20:41:57.284Z,1.57
2017-08-17T20:44:24.740Z,2.80
2017-08-17T20:46:52.200Z,1.33
2017-08-17T20:49:19.761Z,4.60
2017-08-17T20:51:47.317Z,1.40
2017-08-17T20:54:14.784Z,2.40
2017-08-17T20:56:42.332Z,9.67
2017-08-17T20:59:09.795Z,1.37
2017-08-17T21:01:37.255Z,4.47
2017-08-17T21:04:06.072Z,3.67
2017-08-17T21:06:33.854Z,1.77
2017-08-17T21:09:01.904Z,8.63
2017-08-17T21:11:29.469Z,1.67
2017-08-17T21:13:56.979Z,3.00
2017-08-17T21:16:24.440Z,1.30
2017-08-17T21:18:51.913Z,5.80
2017-08-17T21:21:19.456Z,2.43
2017-08-17T21:23:46.927Z,2.37
2017-08-17T21:26:14.486Z,2.90
2017-08-17T21:28:41.928Z,5.93
2017-08-17T21:31:09.403Z,1.43
2017-08-17T21:33:36.847Z,2.00
2017-08-17T21:36:04.320Z,2.60
2017-08-17T21:38:32.198Z,1.83
2017-08-17T21:40:59.696Z,4.43
2017-08-17T21:43:27.143Z,1.53
2017-08-17T21:45:54.631Z,1.53
2017-08-17T21:48:22.094Z,3.30
2017-08-17T21:50:49.845Z,1.70
2017-08-17T21:53:17.292Z,1.23
2017-08-17T21:55:44.767Z,2.43
2017-08-17T21:58:12.326Z,1.73
2017-08-17T22:00:39.796Z,2.20
2017-08-17T22:03:07.341Z,1.63
2017-08-17T22:05:34.831Z,3.53
2017-08-17T22:08:02.284Z,2.90
2017-08-17T22:10:29.767Z,2.77
2017-08-17T22:12:57.231Z,1.90
2017-08-17T22:15:24.680Z,2.73
2017-08-17T22:17:52.159Z,3.90
2017-08-17T22:20:19.637Z,2.13
2017-08-17T22:22:47.105Z,2.37
2017-08-17T22:25:14.662Z,1.83
2017-08-17T22:27:42.135Z,7.80
2017-08-17T22:30:09.591Z,4.17
2017-08-17T22:32:37.073Z,2.50
2017-08-17T22:35:04.584Z,1.90
2017-08-17T22:37:32.046Z,9.23
2017-08-17T22:39:59.596Z,2.07
2017-08-17T22:42:27.257Z,2.63
2017-08-17T22:44:54.703Z,1.63
2017-08-17T22:47:22.171Z,2.30
2017-08-17T22:49:49.728Z,2.40
2017-08-17T22:52:17.175Z,1.87
2017-08-17T22:54:45.205Z,1.80
2017-08-17T22:57:12.714Z,2.77
2017-08-17T22:59:40.271Z,1.90
2017-08-17T23:02:07.883Z,2.10
2017-08-17T23:04:35.390Z,2.67
2017-08-17T23:07:02.959Z,1.40
2017-08-17T23:09:30.427Z,9.70
2017-08-17T23:11:57.964Z,1.70
2017-08-17T23:14:25.434Z,5.23
2017-08-17T23:16:52.975Z,4.13
2017-08-17T23:19:20.539Z,2.57
2017-08-17T23:21:47.992Z,5.87
2017-08-17T23:24:15.564Z,7.33
2017-08-17T23:26:43.020Z,3.03
2017-08-17T23:29:10.491Z,3.47
2017-08-17T23:31:37.950Z,4.40
2017-08-17T23:34:05.460Z,2.33
2017-08-17T23:36:32.917Z,2.00
2017-08-17T23:39:00.360Z,2.90
2017-08-17T23:41:27.828Z,2.50
2017-08-17T23:43:55.274Z,3.07
2017-08-17T23:46:22.771Z,2.33
2017-08-17T23:48:50.219Z,2.90
2017-08-17T23:51:17.683Z,2.03
2017-08-17T23:53:45.156Z,3.90
2017-08-17T23:56:12.618Z,2.37
2017-08-17T23:58:40.076Z,2.00
